Time;durP1;ratioP1;P1;durP2;ratioP2;P2;SDS_P1;SDS_P2;PMS_P1;PMS_P2;Temp;Humidity;BMP_temperature;BMP_pressure;BME280_temperature;BME280_humidity;BME280_pressure;Samples;Min_cycle;Max_cycle;Signal;HPM_P1;HPM_P2
2021/08/30 00:00:34;;;;;;;5.57;2.80;;;;;;;29.11;38.64;100515.37;144994;601;5002;-85
2021/08/30 00:03:01;;;;;;;5.60;3.10;;;;;;;29.19;39.04;100525.72;144994;625;5002;-85
2021/08/30 00:05:28;;;;;;;3.35;2.50;;;;;;;29.22;38.72;100527.34;144994;585;5002;-85
2021/08/30 00:07:54;;;;;;;3.80;2.75;;;;;;;29.21;38.62;100537.19;144994;566;5002;-85
2021/08/30 00:10:21;;;;;;;3.58;2.72;;;;;;;29.23;37.42;100529.94;144994;577;5002;-85
2021/08/30 00:12:47;;;;;;;4.72;2.42;;;;;;;29.17;36.42;100530.22;144994;596;5002;-85
2021/08/30 00:15:15;;;;;;;5.10;2.47;;;;;;;29.13;36.79;100529.53;144994;571;5002;-84
2021/08/30 00:17:42;;;;;;;3.83;2.30;;;;;;;29.12;38.84;100527.78;144994;598;5002;-84
2021/08/30 00:20:17;;;;;;;4.45;2.42;;;;;;;29.11;38.43;100530.53;144994;639;5002;-85
2021/08/30 00:22:50;;;;;;;3.20;2.10;;;;;;;29.07;37.12;100537.84;144994;667;5002;-86
2021/08/30 00:25:20;;;;;;;3.97;2.20;;;;;;;28.99;38.41;100544.53;144994;620;5002;-84
2021/08/30 00:27:46;;;;;;;3.75;2.12;;;;;;;28.99;36.18;100548.06;144994;599;5002;-85
2021/08/30 00:30:13;;;;;;;3.12;2.40;;;;;;;28.95;37.38;100544.69;144994;602;5002;-86
2021/08/30 00:32:40;;;;;;;4.78;2.40;;;;;;;28.95;38.55;100546.47;144994;650;5002;-85
2021/08/30 00:35:07;;;;;;;6.62;2.90;;;;;;;28.96;36.87;100550.88;144994;628;5002;-84
2021/08/30 00:37:36;;;;;;;4.10;2.30;;;;;;;29.01;38.77;100562.19;144994;563;5002;-84
2021/08/30 00:40:05;;;;;;;2.78;1.85;;;;;;;28.98;36.60;100549.00;144994;600;5002;-87
2021/08/30 00:42:31;;;;;;;4.95;2.50;;;;;;;29.00;38.94;100551.59;144994;566;5002;-86
2021/08/30 00:45:00;;;;;;;4.40;2.35;;;;;;;28.88;37.50;100545.06;144994;585;5002;-86
2021/08/30 00:47:27;;;;;;;3.22;2.30;;;;;;;28.94;39.00;100548.28;144994;577;5002;-84
2021/08/30 00:49:54;;;;;;;4.75;2.37;;;;;;;28.98;39.09;100548.13;144994;630;5002;-84
2021/08/30 00:52:21;;;;;;;3.22;2.30;;;;;;;29.00;39.05;100538.22;144994;610;5002;-86
2021/08/30 00:54:48;;;;;;;3.20;2.33;;;;;;;29.06;38.92;100543.28;144994;574;5002;-84
2021/08/30 00:57:15;;;;;;;3.15;2.25;;;;;;;29.07;37.69;100540.53;144994;605;5002;-85
2021/08/30 00:59:42;;;;;;;4.20;2.58;;;;;;;29.04;35.02;100529.13;144994;604;5002;-85
2021/08/30 01:02:10;;;;;;;3.70;2.50;;;;;;;28.87;34.86;100536.19;144994;582;5002;-87
2021/08/30 01:04:38;;;;;;;3.95;2.50;;;;;;;28.73;35.61;100541.31;144994;616;5002;-86
2021/08/30 01:07:25;;;;;;;5.90;2.90;;;;;;;28.61;36.99;100540.12;144994;577;5002;-87
2021/08/30 01:10:01;;;;;;;4.87;2.90;;;;;;;28.66;37.87;100540.75;144994;569;5002;-83
2021/08/30 01:12:35;;;;;;;5.47;2.78;;;;;;;28.71;37.41;100545.87;144994;597;5002;-85
2021/08/30 01:15:12;;;;;;;5.78;2.55;;;;;;;28.69;37.69;100551.28;144994;587;5002;-85
2021/08/30 01:17:39;;;;;;;2.80;2.10;;;;;;;28.69;38.09;100543.28;144994;639;5002;-86
2021/08/30 01:20:32;;;;;;;3.90;2.35;;;;;;;28.67;37.92;100547.00;144994;571;5002;-89
2021/08/30 01:23:01;;;;;;;3.95;2.15;;;;;;;28.55;33.37;100540.38;144994;594;5002;-86
2021/08/30 01:25:31;;;;;;;5.10;2.50;;;;;;;28.53;34.74;100545.78;144994;659;5002;-86
2021/08/30 01:27:58;;;;;;;4.10;2.30;;;;;;;28.50;37.94;100545.94;144994;564;5002;-86
2021/08/30 01:30:26;;;;;;;3.28;2.15;;;;;;;28.36;33.54;100543.97;144994;569;5002;-85
2021/08/30 01:33:05;;;;;;;2.97;2.03;;;;;;;28.43;37.97;100544.53;144994;599;5002;-84
2021/08/30 01:35:50;;;;;;;3.75;2.08;;;;;;;28.44;38.16;100545.37;144994;565;5002;-84
2021/08/30 01:39:01;;;;;;;;;;;;;;;;;;;;;
2021/08/30 01:41:30;;;;;;;4.65;2.00;;;;;;;28.61;33.64;100547.28;144994;592;5004;-87
2021/08/30 01:43:59;;;;;;;4.28;2.05;;;;;;;28.61;37.39;100542.78;144994;626;5004;-85
2021/08/30 01:46:26;;;;;;;2.78;1.92;;;;;;;28.65;37.60;100543.50;144994;592;5004;-85
2021/08/30 01:48:54;;;;;;;4.40;2.25;;;;;;;28.56;35.80;100540.31;144994;602;5004;-85
2021/08/30 01:51:24;;;;;;;4.70;2.08;;;;;;;28.53;34.52;100537.78;144994;589;5004;-84
2021/08/30 01:53:53;;;;;;;2.65;1.90;;;;;;;28.50;34.53;100543.28;144994;569;5004;-86
2021/08/30 01:56:21;;;;;;;2.70;1.87;;;;;;;28.32;34.04;100541.50;144994;605;5004;-86
2021/08/30 02:01:35;;;;;;;2.65;2.00;;;;;;;28.38;37.12;100554.53;144994;587;4567;-87
2021/08/30 02:04:02;;;;;;;3.92;1.77;;;;;;;28.29;32.59;100557.66;144994;587;4573;-86
2021/08/30 02:06:29;;;;;;;3.67;2.00;;;;;;;28.13;32.64;100558.34;144994;609;4572;-87
2021/08/30 02:08:56;;;;;;;3.53;2.03;;;;;;;28.03;33.76;100554.34;144992;670;6002;-86
2021/08/30 02:11:32;;;;;;;4.95;2.15;;;;;;;28.07;35.89;100566.63;144992;564;6002;-88
2021/08/30 02:14:00;;;;;;;4.07;2.20;;;;;;;28.04;36.07;100561.44;144992;612;6002;-87
2021/08/30 02:16:28;;;;;;;3.67;2.30;;;;;;;28.10;36.62;100555.81;144992;608;6002;-86
2021/08/30 02:19:17;;;;;;;4.57;2.20;;;;;;;28.19;36.48;100562.56;144992;702;6002;-84
2021/08/30 02:22:02;;;;;;;3.15;2.00;;;;;;;28.25;36.44;100562.25;144992;579;6002;-84
2021/08/30 02:24:49;;;;;;;4.47;1.95;;;;;;;28.18;36.03;100560.81;144992;712;6002;-85
2021/08/30 02:27:25;;;;;;;2.92;2.03;;;;;;;28.10;35.51;100555.81;144992;620;6002;-87
2021/08/30 02:30:02;;;;;;;3.80;2.20;;;;;;;28.08;34.37;100560.38;144992;570;6002;-87
2021/08/30 02:32:30;;;;;;;2.72;2.05;;;;;;;28.09;36.23;100566.56;144992;581;6002;-88
2021/08/30 02:35:00;;;;;;;3.70;2.20;;;;;;;28.12;36.38;100561.94;144992;623;6002;-86
2021/08/30 02:37:30;;;;;;;5.78;2.40;;;;;;;28.18;36.53;100568.81;144992;659;6002;-86
2021/08/30 02:39:58;;;;;;;5.93;2.00;;;;;;;28.25;36.24;100572.91;144992;565;6002;-87
2021/08/30 02:42:25;;;;;;;3.05;2.20;;;;;;;28.27;36.18;100573.75;144992;741;6002;-87
2021/08/30 02:44:52;;;;;;;2.70;1.85;;;;;;;28.09;34.80;100571.91;144992;589;6002;-84
2021/08/30 02:47:19;;;;;;;3.87;2.28;;;;;;;27.95;33.92;100581.41;144992;618;6002;-86
2021/08/30 02:49:47;;;;;;;4.90;2.37;;;;;;;27.85;34.37;100577.38;144992;575;6002;-85
2021/08/30 02:52:15;;;;;;;3.60;2.22;;;;;;;27.91;36.54;100581.59;144992;573;6002;-86
2021/08/30 02:54:44;;;;;;;4.43;2.30;;;;;;;28.00;36.35;100582.06;144992;597;6002;-85
2021/08/30 02:57:13;;;;;;;3.87;2.28;;;;;;;28.12;36.27;100587.78;144992;638;6002;-83
2021/08/30 02:59:53;;;;;;;4.20;2.47;;;;;;;28.18;35.61;100588.34;144992;581;6002;-87
2021/08/30 03:02:25;;;;;;;4.72;2.20;;;;;;;28.21;36.12;100593.56;144992;602;6003;-86
2021/08/30 03:04:55;;;;;;;3.42;2.22;;;;;;;28.27;36.00;100597.75;144992;589;6002;-84
2021/08/30 03:07:24;;;;;;;4.00;2.40;;;;;;;28.30;35.87;100591.41;144992;569;6002;-84
2021/08/30 03:09:51;;;;;;;3.78;2.30;;;;;;;28.31;35.79;100596.66;144992;692;6002;-87
2021/08/30 03:12:34;;;;;;;5.30;2.30;;;;;;;28.31;35.74;100595.81;144992;723;6002;-87
2021/08/30 03:15:06;;;;;;;3.62;2.42;;;;;;;28.31;34.01;100596.66;144992;609;6002;-86
2021/08/30 03:17:33;;;;;;;4.35;2.50;;;;;;;28.36;35.53;100607.13;144992;569;6002;-85
2021/08/30 03:20:01;;;;;;;4.72;2.22;;;;;;;28.31;35.57;100601.16;144992;569;6002;-84
2021/08/30 03:22:31;;;;;;;5.22;2.47;;;;;;;28.31;35.22;100604.66;144992;712;6002;-85
2021/08/30 03:25:01;;;;;;;3.30;2.30;;;;;;;28.30;35.65;100610.06;144992;574;6002;-86
2021/08/30 03:27:29;;;;;;;5.55;2.70;;;;;;;28.29;35.44;100619.03;144992;653;6002;-86
2021/08/30 03:29:57;;;;;;;6.68;2.80;;;;;;;28.31;35.53;100615.34;144992;684;6002;-87
2021/08/30 03:32:24;;;;;;;5.60;2.67;;;;;;;28.35;35.34;100616.94;144992;602;6002;-88
2021/08/30 03:34:52;;;;;;;9.43;3.20;;;;;;;28.33;35.12;100629.50;144992;575;6002;-87
2021/08/30 03:37:19;;;;;;;6.50;2.87;;;;;;;28.31;35.30;100627.84;144992;745;6002;-86
2021/08/30 03:39:46;;;;;;;7.12;2.90;;;;;;;28.29;35.30;100622.56;144992;633;6002;-86
2021/08/30 03:42:14;;;;;;;6.93;3.30;;;;;;;28.26;35.44;100635.19;144992;650;6002;-86
2021/08/30 03:44:40;;;;;;;5.80;2.90;;;;;;;28.28;35.41;100643.97;144992;639;6002;-86
2021/08/30 03:47:07;;;;;;;5.93;3.30;;;;;;;28.29;35.46;100621.72;144992;637;6003;-86
2021/08/30 03:49:36;;;;;;;5.20;3.20;;;;;;;28.30;35.15;100634.09;144992;597;6002;-85
2021/08/30 03:52:05;;;;;;;5.22;3.03;;;;;;;28.25;35.52;100622.78;144992;698;6002;-88
2021/08/30 03:54:31;;;;;;;6.03;2.80;;;;;;;28.21;35.57;100641.59;144992;576;6003;-85
2021/08/30 03:56:59;;;;;;;3.97;2.53;;;;;;;28.17;35.47;100636.47;144992;601;6002;-87
2021/08/30 03:59:29;;;;;;;6.35;2.70;;;;;;;28.13;35.61;100645.56;144992;565;6002;-86
2021/08/30 04:01:55;;;;;;;7.90;2.58;;;;;;;28.09;35.48;100639.47;144992;730;6002;-84
2021/08/30 04:04:25;;;;;;;7.62;2.60;;;;;;;27.98;35.65;100644.41;144992;569;6002;-86
2021/08/30 04:06:53;;;;;;;3.33;2.40;;;;;;;27.97;35.66;100642.69;144992;573;6002;-85
2021/08/30 04:09:21;;;;;;;4.68;2.85;;;;;;;27.96;34.78;100644.47;144992;571;6002;-85
2021/08/30 04:11:49;;;;;;;4.85;2.47;;;;;;;28.01;35.71;100647.84;144992;583;6002;-85
2021/08/30 04:14:17;;;;;;;7.43;2.78;;;;;;;28.07;35.67;100653.84;144992;594;6002;-84
2021/08/30 04:16:46;;;;;;;4.80;2.50;;;;;;;28.11;35.76;100652.75;144992;585;6002;-83
2021/08/30 04:19:12;;;;;;;3.83;2.55;;;;;;;28.12;35.80;100658.00;144992;712;6002;-84
2021/08/30 04:21:40;;;;;;;5.93;3.00;;;;;;;28.16;35.87;100656.09;144992;723;6002;-85
2021/08/30 04:24:07;;;;;;;6.12;2.80;;;;;;;28.20;35.78;100655.84;144992;599;6002;-84
2021/08/30 04:26:38;;;;;;;5.55;3.12;;;;;;;28.23;35.68;100670.87;144992;648;6002;-85
2021/08/30 04:29:05;;;;;;;4.93;2.42;;;;;;;28.30;35.70;100675.03;144992;570;6002;-85
2021/08/30 04:31:32;;;;;;;5.90;2.60;;;;;;;28.35;35.65;100672.16;144992;615;6002;-87
2021/08/30 04:33:59;;;;;;;4.47;2.55;;;;;;;28.37;35.44;100679.12;144992;606;6002;-84
2021/08/30 04:36:25;;;;;;;5.75;2.47;;;;;;;28.32;35.66;100673.12;144992;634;6002;-86
2021/08/30 04:38:52;;;;;;;4.75;2.40;;;;;;;28.16;35.03;100672.97;144992;568;6002;-85
2021/08/30 04:41:19;;;;;;;7.50;2.78;;;;;;;27.81;34.53;100685.16;144992;605;6002;-87
2021/08/30 04:43:46;;;;;;;8.40;3.05;;;;;;;27.72;35.36;100675.72;144992;603;6002;-85
2021/08/30 04:46:13;;;;;;;6.20;2.80;;;;;;;27.66;35.96;100678.66;144992;568;6002;-86
2021/08/30 04:48:40;;;;;;;5.82;2.55;;;;;;;27.69;36.37;100687.38;144992;596;6002;-87
2021/08/30 04:51:06;;;;;;;6.85;2.58;;;;;;;27.77;36.12;100691.53;144992;563;6002;-83
2021/08/30 04:53:33;;;;;;;6.00;2.58;;;;;;;27.79;35.98;100693.22;144992;569;6002;-86
2021/08/30 04:55:59;;;;;;;8.13;2.58;;;;;;;27.81;36.34;100694.00;144992;571;6002;-85
2021/08/30 04:58:26;;;;;;;8.38;2.80;;;;;;;27.88;35.84;100700.78;144992;619;6002;-83
2021/08/30 05:00:52;;;;;;;7.85;3.20;;;;;;;27.86;36.46;100709.81;144992;576;6002;-88
2021/08/30 05:03:18;;;;;;;6.10;2.87;;;;;;;27.67;36.39;100704.38;144992;665;6002;-86
2021/08/30 05:05:45;;;;;;;6.75;3.20;;;;;;;27.65;36.64;100712.44;144992;720;6002;-85
2021/08/30 05:08:11;;;;;;;10.30;3.70;;;;;;;27.77;36.58;100705.72;144992;571;6002;-86
2021/08/30 05:10:38;;;;;;;9.13;3.87;;;;;;;27.86;36.25;100710.66;144992;578;6002;-86
2021/08/30 05:13:04;;;;;;;6.03;3.42;;;;;;;27.99;36.04;100704.84;144992;583;6002;-86
2021/08/30 05:15:31;;;;;;;5.53;2.80;;;;;;;28.09;35.86;100710.66;144992;597;6002;-88
2021/08/30 05:17:57;;;;;;;7.10;3.22;;;;;;;27.99;35.37;100702.19;144992;619;6002;-86
2021/08/30 05:20:24;;;;;;;8.18;3.25;;;;;;;28.01;36.37;100705.63;144992;608;6002;-86
2021/08/30 05:22:51;;;;;;;5.53;2.78;;;;;;;28.09;36.26;100707.97;144992;604;6002;-86
2021/08/30 05:25:17;;;;;;;6.78;3.30;;;;;;;28.15;35.95;100700.56;144992;580;6002;-86
2021/08/30 05:27:46;;;;;;;6.43;3.03;;;;;;;28.25;36.12;100702.84;144992;569;6002;-86
2021/08/30 05:30:13;;;;;;;7.32;3.80;;;;;;;28.31;35.87;100703.44;144992;576;6002;-86
2021/08/30 05:32:39;;;;;;;7.30;4.05;;;;;;;28.36;36.22;100695.22;144992;571;6002;-87
2021/08/30 05:35:06;;;;;;;5.70;3.50;;;;;;;28.40;35.71;100702.16;144992;577;6002;-85
2021/08/30 05:37:32;;;;;;;8.02;3.20;;;;;;;28.46;35.87;100703.66;144992;697;6002;-87
2021/08/30 05:39:59;;;;;;;4.82;3.30;;;;;;;28.50;34.49;100714.16;144992;589;6002;-84
2021/08/30 05:42:25;;;;;;;7.30;3.17;;;;;;;28.54;35.70;100707.75;144992;571;6002;-86
2021/08/30 05:45:24;;;;;;;7.70;3.22;;;;;;;28.56;35.56;100710.34;144992;626;6002;-84
2021/08/30 05:47:53;;;;;;;5.65;2.85;;;;;;;28.70;35.44;100712.41;144992;646;6002;-87
2021/08/30 05:50:19;;;;;;;4.93;2.90;;;;;;;28.73;35.96;100699.78;144992;573;6002;-87
2021/08/30 05:52:46;;;;;;;6.62;3.03;;;;;;;28.83;35.22;100699.38;144992;582;6002;-88
2021/08/30 05:55:12;;;;;;;13.85;3.10;;;;;;;28.92;35.43;100701.56;144992;650;6002;-85
2021/08/30 05:57:39;;;;;;;7.18;3.05;;;;;;;28.98;34.71;100708.44;144992;570;6002;-86
2021/08/30 06:00:07;;;;;;;8.07;3.17;;;;;;;29.06;35.24;100704.44;144992;588;6002;-87
2021/08/30 06:03:04;;;;;;;6.30;3.28;;;;;;;29.20;35.22;100714.53;144992;712;6002;-84
2021/08/30 06:05:44;;;;;;;7.00;3.17;;;;;;;29.38;35.54;100720.81;144992;669;6004;-84
2021/08/30 06:08:12;;;;;;;6.90;3.00;;;;;;;29.53;35.29;100712.97;144992;599;6004;-86
2021/08/30 06:10:38;;;;;;;5.87;2.70;;;;;;;29.62;34.92;100709.81;144992;575;6004;-84
2021/08/30 06:13:05;;;;;;;7.15;3.97;;;;;;;29.63;35.00;100714.22;144992;598;6004;-84
2021/08/30 06:15:31;;;;;;;8.95;3.62;;;;;;;29.40;32.67;100710.00;144992;576;6004;-86
2021/08/30 06:17:58;;;;;;;6.00;4.05;;;;;;;29.30;35.11;100712.25;144992;569;6004;-85
2021/08/30 06:20:24;;;;;;;6.45;3.90;;;;;;;29.29;35.12;100714.09;144992;580;6004;-85
2021/08/30 06:22:51;;;;;;;6.65;3.87;;;;;;;29.41;35.21;100707.25;144992;561;6004;-87
2021/08/30 06:25:18;;;;;;;3.70;2.85;;;;;;;29.55;35.07;100713.75;144992;579;6004;-86
2021/08/30 06:27:44;;;;;;;6.85;3.10;;;;;;;29.65;35.43;100718.56;144992;624;6004;-86
2021/08/30 06:30:11;;;;;;;6.50;3.17;;;;;;;29.73;35.40;100720.81;144992;571;6004;-87
2021/08/30 06:32:38;;;;;;;4.65;2.80;;;;;;;29.86;35.00;100718.47;144992;591;6004;-80
2021/08/30 06:35:06;;;;;;;4.45;2.67;;;;;;;29.97;35.17;100715.22;144992;574;6004;-81
2021/08/30 06:37:32;;;;;;;11.80;5.07;;;;;;;30.07;34.96;100720.94;144992;595;6004;-83
2021/08/30 06:39:59;;;;;;;25.85;6.10;;;;;;;30.16;35.81;100724.03;144992;688;6004;-73
2021/08/30 06:42:26;;;;;;;10.00;5.30;;;;;;;30.22;36.50;100725.50;144992;579;6004;-75
2021/08/30 06:44:52;;;;;;;8.48;3.20;;;;;;;30.25;37.17;100720.00;144992;577;6004;-74
2021/08/30 06:47:20;;;;;;;6.05;3.28;;;;;;;30.23;36.60;100716.53;144992;568;6004;-75
2021/08/30 06:49:47;;;;;;;6.93;3.25;;;;;;;30.24;36.87;100720.94;144992;599;6004;-72
2021/08/30 06:52:14;;;;;;;4.47;2.90;;;;;;;30.29;36.97;100723.38;144992;637;6004;-73
2021/08/30 06:54:40;;;;;;;5.93;2.60;;;;;;;30.35;36.48;100723.94;144992;603;6004;-73
2021/08/30 06:57:07;;;;;;;6.47;3.10;;;;;;;30.43;36.35;100728.87;144992;597;6004;-74
2021/08/30 06:59:35;;;;;;;5.53;2.65;;;;;;;30.48;36.72;100725.97;144992;566;6004;-78
2021/08/30 07:02:12;;;;;;;7.72;3.05;;;;;;;30.57;36.29;100733.50;144992;567;6004;-87
2021/08/30 07:04:41;;;;;;;4.40;3.53;;;;;;;30.65;35.89;100741.13;144992;585;6004;-82
2021/08/30 07:07:11;;;;;;;5.32;2.60;;;;;;;30.77;36.05;100742.28;144992;614;6004;-69
2021/08/30 07:09:38;;;;;;;11.60;4.50;;;;;;;30.88;35.79;100747.94;144992;581;6004;-71
2021/08/30 07:12:08;;;;;;;6.70;4.30;;;;;;;30.96;34.87;100736.78;144992;579;6004;-73
2021/08/30 07:14:36;;;;;;;8.00;5.28;;;;;;;31.00;35.76;100749.09;144992;694;6004;-70
2021/08/30 07:17:02;;;;;;;6.47;4.20;;;;;;;31.04;35.35;100754.19;144992;672;6004;-71
2021/08/30 07:19:29;;;;;;;7.22;4.30;;;;;;;31.02;35.42;100749.88;144992;638;6004;-69
2021/08/30 07:21:59;;;;;;;5.57;4.40;;;;;;;31.07;35.21;100753.19;144992;605;6004;-70
2021/08/30 07:24:25;;;;;;;4.00;2.83;;;;;;;31.10;34.70;100763.69;144992;582;6004;-68
2021/08/30 07:26:52;;;;;;;8.35;4.43;;;;;;;31.18;35.21;100764.16;144992;602;6004;-71
2021/08/30 07:29:18;;;;;;;8.55;3.90;;;;;;;31.28;34.47;100767.19;144992;580;6004;-71
2021/08/30 07:31:45;;;;;;;6.55;4.28;;;;;;;31.36;34.64;100753.34;144992;601;6004;-74
2021/08/30 07:34:11;;;;;;;5.70;4.03;;;;;;;31.46;35.20;100757.22;144992;584;6012;-70
2021/08/30 07:36:37;;;;;;;6.47;4.20;;;;;;;31.55;34.42;100766.59;144992;665;6004;-70
2021/08/30 07:39:04;;;;;;;2.92;2.42;;;;;;;31.56;32.88;100763.84;144992;682;6004;-74
2021/08/30 07:41:31;;;;;;;3.37;2.78;;;;;;;31.60;33.19;100770.75;144992;584;6004;-71
2021/08/30 07:43:58;;;;;;;5.25;2.67;;;;;;;31.63;34.00;100764.34;144992;569;6004;-71
2021/08/30 07:46:26;;;;;;;5.40;4.18;;;;;;;31.52;34.43;100769.44;144992;644;6004;-74
2021/08/30 07:48:52;;;;;;;3.95;3.05;;;;;;;31.59;33.80;100770.81;144991;602;6000;-72
2021/08/30 07:51:19;;;;;;;4.45;2.97;;;;;;;31.62;33.53;100773.31;144992;609;6002;-75
2021/08/30 07:53:46;;;;;;;5.80;4.43;;;;;;;31.72;32.64;100774.53;144992;570;6002;-71
2021/08/30 07:56:13;;;;;;;4.82;3.35;;;;;;;31.80;33.78;100772.28;144992;702;6002;-71
2021/08/30 07:58:39;;;;;;;7.32;3.60;;;;;;;31.88;30.87;100773.63;144991;565;6002;-71
2021/08/30 08:01:06;;;;;;;6.10;4.15;;;;;;;31.96;33.90;100777.59;144992;590;6002;-75
2021/08/30 08:03:32;;;;;;;8.00;3.97;;;;;;;32.04;31.58;100781.62;144992;569;6002;-74
2021/08/30 08:05:59;;;;;;;5.87;4.22;;;;;;;32.17;32.85;100790.75;144992;575;6002;-71
2021/08/30 08:08:25;;;;;;;6.25;4.43;;;;;;;32.29;32.62;100786.44;144992;577;6002;-73
2021/08/30 08:10:52;;;;;;;7.47;4.22;;;;;;;32.42;33.21;100789.25;144992;651;6002;-78
2021/08/30 08:13:19;;;;;;;5.97;4.37;;;;;;;32.51;28.94;100786.00;144992;626;6002;-78
2021/08/30 08:15:46;;;;;;;8.02;3.75;;;;;;;32.52;29.77;100788.59;144992;564;6003;-80
2021/08/30 08:18:12;;;;;;;7.85;3.45;;;;;;;32.61;30.98;100784.47;144992;581;6002;-81
2021/08/30 08:20:39;;;;;;;5.47;3.03;;;;;;;32.71;28.56;100779.44;144992;670;6002;-85
2021/08/30 08:23:06;;;;;;;4.65;2.50;;;;;;;32.72;31.58;100784.72;144993;588;6002;-77
2021/08/30 08:25:33;;;;;;;2.72;1.92;;;;;;;32.75;27.56;100775.56;144993;668;6002;-85
2021/08/30 08:28:04;;;;;;;4.12;2.08;;;;;;;32.81;28.66;100780.56;144993;577;6002;-83
2021/08/30 08:30:33;;;;;;;4.70;3.45;;;;;;;32.96;32.12;100784.09;144993;600;6002;-85
2021/08/30 08:32:59;;;;;;;4.32;3.90;;;;;;;33.13;30.44;100785.72;144992;669;6002;-82
2021/08/30 08:35:26;;;;;;;4.28;2.20;;;;;;;33.24;26.65;100787.75;144993;607;6002;-82
2021/08/30 08:37:53;;;;;;;3.20;2.20;;;;;;;33.24;28.44;100796.69;144993;583;6002;-82
2021/08/30 08:40:20;;;;;;;2.45;2.00;;;;;;;33.25;27.75;100789.50;144993;623;6002;-76
2021/08/30 08:42:46;;;;;;;2.10;1.83;;;;;;;33.35;30.85;100792.44;144993;585;6002;-80
2021/08/30 08:45:19;;;;;;;2.97;1.90;;;;;;;33.21;29.43;100791.50;144993;564;6002;-78
2021/08/30 08:47:45;;;;;;;4.95;2.12;;;;;;;33.16;31.62;100798.97;144993;590;6002;-79
2021/08/30 08:50:15;;;;;;;2.92;2.25;;;;;;;33.24;30.18;100799.37;144993;612;6002;-81
2021/08/30 08:52:44;;;;;;;3.58;2.10;;;;;;;33.22;29.82;100793.25;144992;602;6002;-82
2021/08/30 08:55:13;;;;;;;2.47;1.90;;;;;;;33.31;27.83;100785.53;144992;575;6002;-81
2021/08/30 08:57:40;;;;;;;14.98;2.90;;;;;;;33.39;28.36;100791.28;144992;569;6002;-79
2021/08/30 09:00:09;;;;;;;5.25;2.70;;;;;;;33.48;30.28;100793.37;144992;597;6003;-82
2021/08/30 09:02:36;;;;;;;2.58;2.37;;;;;;;33.54;29.77;100792.13;144992;591;6002;-80
2021/08/30 09:05:06;;;;;;;2.20;1.80;;;;;;;33.64;29.21;100793.22;144992;599;6002;-77
2021/08/30 09:07:42;;;;;;;6.78;2.62;;;;;;;33.60;30.09;100789.87;144993;655;6003;-78
2021/08/30 09:10:15;;;;;;;3.65;2.20;;;;;;;33.69;30.86;100798.28;144993;737;6002;-77
2021/08/30 09:12:43;;;;;;;5.33;2.40;;;;;;;33.74;31.04;100799.75;144993;602;6002;-75
2021/08/30 09:15:23;;;;;;;3.50;2.92;;;;;;;33.65;28.31;100794.94;144993;587;6002;-77
2021/08/30 09:17:55;;;;;;;3.33;2.40;;;;;;;33.69;29.02;100799.16;144993;647;6002;-77
2021/08/30 09:20:27;;;;;;;4.35;2.22;;;;;;;33.79;28.51;100797.62;144993;587;6002;-76
2021/08/30 09:22:55;;;;;;;3.40;2.17;;;;;;;33.79;26.07;100791.38;144993;565;6002;-78
2021/08/30 09:25:22;;;;;;;3.65;2.20;;;;;;;33.84;27.95;100788.34;144993;597;6002;-81
2021/08/30 09:27:51;;;;;;;4.25;2.90;;;;;;;33.92;27.94;100784.19;144993;589;6002;-81
2021/08/30 09:30:24;;;;;;;3.33;2.65;;;;;;;34.06;29.49;100790.47;144993;582;6002;-82
2021/08/30 09:32:50;;;;;;;4.65;3.03;;;;;;;34.16;29.71;100788.88;144993;617;6002;-77
2021/08/30 09:35:18;;;;;;;3.28;2.40;;;;;;;34.14;27.46;100786.28;144993;565;6002;-81
2021/08/30 09:37:46;;;;;;;3.28;2.37;;;;;;;34.17;26.40;100778.00;144993;664;6002;-78
2021/08/30 09:40:15;;;;;;;4.47;2.50;;;;;;;34.06;25.44;100771.59;144993;569;6002;-81
2021/08/30 09:42:54;;;;;;;2.58;2.08;;;;;;;34.08;29.80;100777.78;144993;565;6002;-72
2021/08/30 09:45:23;;;;;;;3.25;2.53;;;;;;;34.15;25.24;100769.13;144993;586;6002;-79
2021/08/30 09:48:01;;;;;;;3.05;2.40;;;;;;;34.28;26.36;100776.41;144993;581;6002;-82
2021/08/30 09:50:36;;;;;;;3.55;2.67;;;;;;;34.41;26.14;100771.91;144993;599;6002;-80
2021/08/30 09:53:05;;;;;;;10.63;5.70;;;;;;;34.38;22.07;100765.84;144993;588;6002;-80
2021/08/30 09:55:33;;;;;;;7.45;5.30;;;;;;;34.34;23.73;100762.53;144993;619;6002;-76
2021/08/30 09:58:00;;;;;;;8.68;7.00;;;;;;;34.38;24.85;100761.34;144993;563;6002;-79
2021/08/30 10:00:26;;;;;;;7.72;5.93;;;;;;;34.34;21.77;100757.12;144993;597;6002;-79
2021/08/30 10:02:55;;;;;;;6.15;4.68;;;;;;;34.29;22.00;100760.16;144994;605;5002;-78
2021/08/30 10:05:25;;;;;;;7.18;4.12;;;;;;;34.27;27.28;100756.72;144994;680;5002;-77
2021/08/30 10:07:55;;;;;;;3.87;3.45;;;;;;;34.17;22.17;100752.88;144994;630;5002;-77
2021/08/30 10:10:23;;;;;;;5.22;4.47;;;;;;;34.15;20.83;100752.13;144994;566;5002;-79
2021/08/30 10:12:52;;;;;;;4.53;3.50;;;;;;;34.13;22.67;100752.22;144994;574;5002;-75
2021/08/30 10:15:20;;;;;;;3.78;2.47;;;;;;;34.09;21.50;100747.16;144994;586;5002;-76
2021/08/30 10:17:48;;;;;;;3.92;3.45;;;;;;;34.06;22.87;100750.06;144994;637;5002;-74
2021/08/30 10:20:21;;;;;;;3.83;3.40;;;;;;;33.98;22.63;100751.47;144994;598;5002;-77
2021/08/30 10:23:03;;;;;;;3.47;2.43;;;;;;;34.05;24.46;100745.66;144994;569;5002;-78
2021/08/30 10:25:34;;;;;;;4.97;3.55;;;;;;;33.98;22.04;100743.38;144994;589;5002;-79
2021/08/30 10:28:06;;;;;;;4.40;3.60;;;;;;;33.98;21.81;100745.19;144994;568;5002;-79
2021/08/30 10:30:35;;;;;;;4.53;3.72;;;;;;;33.88;20.86;100750.34;144994;645;5002;-78
2021/08/30 10:33:04;;;;;;;3.75;2.42;;;;;;;33.91;22.92;100742.06;144994;593;5002;-80
2021/08/30 10:35:35;;;;;;;4.40;3.62;;;;;;;33.96;22.61;100747.16;144994;575;5002;-80
2021/08/30 10:38:07;;;;;;;3.60;2.85;;;;;;;34.11;25.41;100747.94;144994;605;5002;-82
2021/08/30 10:40:37;;;;;;;4.85;2.65;;;;;;;34.26;23.67;100744.19;144994;606;5002;-79
2021/08/30 10:43:14;;;;;;;4.07;2.58;;;;;;;34.20;23.92;100733.81;144994;657;5002;-80
2021/08/30 10:45:56;;;;;;;3.33;2.60;;;;;;;34.25;22.13;100739.78;144994;579;5002;-81
2021/08/30 10:48:41;;;;;;;4.85;4.12;;;;;;;34.16;20.89;100738.56;144994;618;5002;-79
2021/08/30 10:51:16;;;;;;;4.68;2.60;;;;;;;34.12;23.28;100734.38;144994;583;5003;-78
2021/08/30 10:53:54;;;;;;;6.05;2.55;;;;;;;34.25;24.92;100736.22;144994;671;5002;-79
2021/08/30 10:56:28;;;;;;;4.07;1.92;;;;;;;34.34;22.06;100719.41;144994;594;5002;-81
2021/08/30 10:58:57;;;;;;;4.80;2.20;;;;;;;34.43;21.27;100728.69;144994;564;5003;-80
2021/08/30 11:01:24;;;;;;;2.67;1.80;;;;;;;34.49;22.19;100728.22;144994;671;5002;-78
2021/08/30 11:03:57;;;;;;;2.90;1.87;;;;;;;34.54;24.69;100728.78;144994;626;5002;-79
2021/08/30 11:06:25;;;;;;;3.00;1.90;;;;;;;34.58;24.39;100724.87;144994;597;5002;-81
2021/08/30 11:08:51;;;;;;;1.50;1.40;;;;;;;34.62;24.13;100731.81;144994;581;5002;-78
2021/08/30 11:11:26;;;;;;;4.00;1.67;;;;;;;34.59;21.54;100723.94;144994;591;5002;-79
2021/08/30 11:14:02;;;;;;;2.12;1.65;;;;;;;34.48;19.73;100723.84;144994;632;5002;-77
2021/08/30 11:16:30;;;;;;;5.53;1.60;;;;;;;34.41;20.59;100722.53;144994;612;5002;-77
2021/08/30 11:19:07;;;;;;;1.60;1.50;;;;;;;34.43;22.97;100720.62;144994;620;5002;-77
2021/08/30 11:21:51;;;;;;;4.30;2.65;;;;;;;34.24;22.27;100723.75;144994;585;5002;-75
2021/08/30 11:24:23;;;;;;;2.83;1.90;;;;;;;34.07;24.87;100719.47;144994;581;5002;-87
2021/08/30 11:26:50;;;;;;;3.60;1.90;;;;;;;33.83;25.37;100720.19;144994;604;5002;-82
2021/08/30 11:29:19;;;;;;;3.80;2.12;;;;;;;33.73;26.00;100722.66;144994;565;5002;-81
2021/08/30 11:31:52;;;;;;;2.75;1.90;;;;;;;33.60;26.56;100716.34;144994;646;5002;-84
2021/08/30 11:34:26;;;;;;;;;;;;;;;33.36;28.12;100729.59;144998;913;5002;-85
2021/08/30 11:36:54;;;;;;;4.50;2.20;;;;;;;32.90;28.44;100717.31;144998;596;5002;-77
2021/08/30 11:39:21;;;;;;;2.85;2.00;;;;;;;32.72;29.27;100712.16;144994;586;5002;-78
2021/08/30 11:41:54;;;;;;;4.03;2.60;;;;;;;32.62;28.46;100697.53;144994;585;5002;-75
2021/08/30 11:44:21;;;;;;;2.20;1.90;;;;;;;32.51;29.19;100700.88;144994;605;5002;-77
2021/08/30 11:46:51;;;;;;;3.08;2.00;;;;;;;32.41;29.32;100697.06;144993;664;5002;-81